sensor_id;sensor_type;location;lat;lon;timestamp;pressure;altitude;pressure_sealevel;temperature;humidity
20444;BME280;10381;53.730;10.010;2024-03-17T00:02:21;101696.53;;;1.51;100.00
20444;BME280;10381;53.730;10.010;2024-03-17T00:06:21;101698.81;;;0.84;100.00
20444;BME280;10381;53.730;10.010;2024-03-17T00:10:21;101698.03;;;0.26;100.00
20444;BME280;10381;53.730;10.010;2024-03-17T00:14:22;101688.72;;;-0.09;100.00
20444;BME280;10381;53.730;10.010;2024-03-17T00:18:22;101693.81;;;-0.36;100.00
20444;BME280;10381;53.730;10.010;2024-03-17T00:22:23;101693.38;;;-0.52;100.00
20444;BME280;10381;53.730;10.010;2024-03-17T00:26:23;101695.72;;;-0.43;100.00
20444;BME280;10381;53.730;10.010;2024-03-17T00:30:23;101670.47;;;-0.09;100.00
20444;BME280;10381;53.730;10.010;2024-03-17T00:34:23;101647.78;;;0.23;100.00
20444;BME280;10381;53.730;10.010;2024-03-17T00:38:24;101624.94;;;0.31;100.00
20444;BME280;10381;53.730;10.010;2024-03-17T00:42:24;101603.09;;;0.60;100.00
20444;BME280;10381;53.730;10.010;2024-03-17T00:46:24;101591.47;;;0.95;100.00
20444;BME280;10381;53.730;10.010;2024-03-17T00:50:24;101566.75;;;1.29;100.00
20444;BME280;10381;53.730;10.010;2024-03-17T00:54:25;101561.16;;;1.40;100.00
20444;BME280;10381;53.730;10.010;2024-03-17T00:58:25;101560.97;;;1.44;100.00
20444;BME280;10381;53.730;10.010;2024-03-17T01:02:26;101561.16;;;1.40;100.00
20444;BME280;10381;53.730;10.010;2024-03-17T01:06:26;101564.47;;;1.43;100.00
20444;BME280;10381;53.730;10.010;2024-03-17T01:10:26;101566.28;;;1.41;100.00
20444;BME280;10381;53.730;10.010;2024-03-17T01:14:27;101554.63;;;1.52;100.00
20444;BME280;10381;53.730;10.010;2024-03-17T01:18:28;101559.63;;;1.56;100.00
20444;BME280;10381;53.730;10.010;2024-03-17T01:22:28;101561.69;;;1.48;100.00
20444;BME280;10381;53.730;10.010;2024-03-17T01:26:28;101561.53;;;1.53;100.00
20444;BME280;10381;53.730;10.010;2024-03-17T01:30:29;101561.09;;;1.63;100.00
20444;BME280;10381;53.730;10.010;2024-03-17T01:34:30;101553.34;;;1.62;100.00
20444;BME280;10381;53.730;10.010;2024-03-17T01:38:30;101551.88;;;1.77;100.00
20444;BME280;10381;53.730;10.010;2024-03-17T01:42:30;101547.03;;;1.89;100.00
20444;BME280;10381;53.730;10.010;2024-03-17T01:46:30;101545.56;;;1.82;100.00
20444;BME280;10381;53.730;10.010;2024-03-17T01:50:34;101545.69;;;1.79;100.00
20444;BME280;10381;53.730;10.010;2024-03-17T01:54:35;101549.47;;;1.72;100.00
20444;BME280;10381;53.730;10.010;2024-03-17T01:58:36;101557.09;;;1.55;100.00
20444;BME280;10381;53.730;10.010;2024-03-17T02:02:36;101559.31;;;0.95;100.00
20444;BME280;10381;53.730;10.010;2024-03-17T02:06:37;101543.22;;;1.31;100.00
20444;BME280;10381;53.730;10.010;2024-03-17T02:10:37;101542.19;;;1.11;100.00
20444;BME280;10381;53.730;10.010;2024-03-17T02:14:38;101540.94;;;0.48;100.00
20444;BME280;10381;53.730;10.010;2024-03-17T02:18:38;101525.72;;;0.85;100.00
20444;BME280;10381;53.730;10.010;2024-03-17T02:22:39;101522.59;;;0.76;100.00
20444;BME280;10381;53.730;10.010;2024-03-17T02:26:39;101515.09;;;0.92;100.00
20444;BME280;10381;53.730;10.010;2024-03-17T02:30:40;101513.38;;;0.91;100.00
20444;BME280;10381;53.730;10.010;2024-03-17T02:34:40;101512.97;;;0.28;100.00
20444;BME280;10381;53.730;10.010;2024-03-17T02:38:41;101497.72;;;0.42;100.00
20444;BME280;10381;53.730;10.010;2024-03-17T02:43:00;101512.34;;;-0.34;100.00
20444;BME280;10381;53.730;10.010;2024-03-17T02:47:01;101490.53;;;-0.58;100.00
20444;BME280;10381;53.730;10.010;2024-03-17T02:51:02;101496.97;;;-0.70;100.00
20444;BME280;10381;53.730;10.010;2024-03-17T02:55:02;101496.75;;;-0.92;100.00
20444;BME280;10381;53.730;10.010;2024-03-17T02:59:03;101491.09;;;-0.76;100.00
20444;BME280;10381;53.730;10.010;2024-03-17T03:03:03;101488.81;;;-1.17;100.00
20444;BME280;10381;53.730;10.010;2024-03-17T03:07:04;101480.22;;;-1.20;100.00
20444;BME280;10381;53.730;10.010;2024-03-17T03:11:09;101460.22;;;-0.06;100.00
20444;BME280;10381;53.730;10.010;2024-03-17T03:15:13;101436.44;;;0.30;100.00
20444;BME280;10381;53.730;10.010;2024-03-17T03:19:13;101431.69;;;0.41;100.00
20444;BME280;10381;53.730;10.010;2024-03-17T03:23:13;101420.97;;;0.49;100.00
20444;BME280;10381;53.730;10.010;2024-03-17T03:27:14;101413.50;;;0.40;100.00
20444;BME280;10381;53.730;10.010;2024-03-17T03:31:14;101404.56;;;-0.03;100.00
20444;BME280;10381;53.730;10.010;2024-03-17T03:35:14;101414.84;;;-0.78;100.00
20444;BME280;10381;53.730;10.010;2024-03-17T03:39:15;101414.72;;;-1.03;100.00
20444;BME280;10381;53.730;10.010;2024-03-17T03:43:15;101417.50;;;-1.08;100.00
20444;BME280;10381;53.730;10.010;2024-03-17T03:47:15;101420.25;;;-0.58;100.00
20444;BME280;10381;53.730;10.010;2024-03-17T03:51:16;101415.28;;;-0.37;100.00
20444;BME280;10381;53.730;10.010;2024-03-17T03:55:16;101399.47;;;-0.31;100.00
20444;BME280;10381;53.730;10.010;2024-03-17T03:59:17;101407.59;;;-0.15;100.00
20444;BME280;10381;53.730;10.010;2024-03-17T04:03:17;101407.44;;;-0.11;100.00
20444;BME280;10381;53.730;10.010;2024-03-17T04:07:17;101405.63;;;-0.09;100.00
20444;BME280;10381;53.730;10.010;2024-03-17T04:11:18;101407.84;;;-0.23;100.00
20444;BME280;10381;53.730;10.010;2024-03-17T04:15:18;101401.16;;;-0.30;100.00
20444;BME280;10381;53.730;10.010;2024-03-17T04:19:19;101390.97;;;-0.11;100.00
20444;BME280;10381;53.730;10.010;2024-03-17T04:23:20;101388.63;;;0.06;100.00
20444;BME280;10381;53.730;10.010;2024-03-17T04:27:25;101387.47;;;0.15;100.00
20444;BME280;10381;53.730;10.010;2024-03-17T04:31:25;101386.41;;;-0.05;100.00
20444;BME280;10381;53.730;10.010;2024-03-17T04:35:25;101390.75;;;-0.30;100.00
20444;BME280;10381;53.730;10.010;2024-03-17T04:39:26;101388.94;;;-0.28;100.00
20444;BME280;10381;53.730;10.010;2024-03-17T04:43:26;101396.06;;;-0.33;100.00
20444;BME280;10381;53.730;10.010;2024-03-17T04:47:27;101393.94;;;-0.75;100.00
20444;BME280;10381;53.730;10.010;2024-03-17T04:51:27;101395.41;;;-0.95;100.00
20444;BME280;10381;53.730;10.010;2024-03-17T04:55:27;101382.41;;;-0.68;100.00
20444;BME280;10381;53.730;10.010;2024-03-17T04:59:28;101391.66;;;-1.14;100.00
20444;BME280;10381;53.730;10.010;2024-03-17T05:03:29;101390.03;;;-1.18;100.00
20444;BME280;10381;53.730;10.010;2024-03-17T05:07:29;101398.97;;;-1.27;100.00
20444;BME280;10381;53.730;10.010;2024-03-17T05:11:30;101400.81;;;-1.31;100.00
20444;BME280;10381;53.730;10.010;2024-03-17T05:15:30;101392.00;;;-1.25;100.00
20444;BME280;10381;53.730;10.010;2024-03-17T05:19:31;101395.19;;;-1.17;100.00
20444;BME280;10381;53.730;10.010;2024-03-17T05:23:33;101393.69;;;-1.54;100.00
20444;BME280;10381;53.730;10.010;2024-03-17T05:27:34;101397.75;;;-1.76;100.00
20444;BME280;10381;53.730;10.010;2024-03-17T05:31:34;101418.34;;;-2.01;100.00
20444;BME280;10381;53.730;10.010;2024-03-17T05:35:35;101418.38;;;-2.03;100.00
20444;BME280;10381;53.730;10.010;2024-03-17T05:39:35;101412.19;;;-1.97;100.00
20444;BME280;10381;53.730;10.010;2024-03-17T05:43:36;101416.63;;;-2.02;100.00
20444;BME280;10381;53.730;10.010;2024-03-17T05:47:38;101418.72;;;-1.82;100.00
20444;BME280;10381;53.730;10.010;2024-03-17T05:51:38;101419.00;;;-1.62;100.00
20444;BME280;10381;53.730;10.010;2024-03-17T05:55:39;101414.28;;;-1.47;100.00
20444;BME280;10381;53.730;10.010;2024-03-17T05:59:41;101421.84;;;-1.40;100.00
20444;BME280;10381;53.730;10.010;2024-03-17T06:03:41;101429.09;;;-0.92;100.00
20444;BME280;10381;53.730;10.010;2024-03-17T06:07:41;101422.91;;;-0.31;100.00
20444;BME280;10381;53.730;10.010;2024-03-17T06:11:42;101415.16;;;-0.08;100.00
20444;BME280;10381;53.730;10.010;2024-03-17T06:15:43;101422.63;;;-0.24;100.00
20444;BME280;10381;53.730;10.010;2024-03-17T06:19:44;101426.41;;;-0.34;100.00
20444;BME280;10381;53.730;10.010;2024-03-17T06:23:45;101416.88;;;-0.33;100.00
20444;BME280;10381;53.730;10.010;2024-03-17T06:27:45;101413.19;;;-0.26;100.00
20444;BME280;10381;53.730;10.010;2024-03-17T06:31:46;101409.59;;;0.03;100.00
20444;BME280;10381;53.730;10.010;2024-03-17T06:35:47;101410.75;;;0.19;100.00
20444;BME280;10381;53.730;10.010;2024-03-17T06:39:47;101410.88;;;0.40;100.00
20444;BME280;10381;53.730;10.010;2024-03-17T06:43:47;101410.16;;;0.60;100.00
20444;BME280;10381;53.730;10.010;2024-03-17T06:47:49;101405.03;;;1.04;100.00
20444;BME280;10381;53.730;10.010;2024-03-17T06:51:50;101403.44;;;1.44;100.00
20444;BME280;10381;53.730;10.010;2024-03-17T06:55:54;101398.69;;;1.76;100.00
20444;BME280;10381;53.730;10.010;2024-03-17T06:59:54;101390.44;;;2.05;100.00
20444;BME280;10381;53.730;10.010;2024-03-17T07:03:55;101387.34;;;2.37;100.00
20444;BME280;10381;53.730;10.010;2024-03-17T07:07:55;101384.59;;;2.59;100.00
20444;BME280;10381;53.730;10.010;2024-03-17T07:11:55;101385.47;;;2.78;100.00
20444;BME280;10381;53.730;10.010;2024-03-17T07:15:56;101375.25;;;2.91;100.00
20444;BME280;10381;53.730;10.010;2024-03-17T07:19:56;101369.03;;;2.93;100.00
20444;BME280;10381;53.730;10.010;2024-03-17T07:23:57;101370.31;;;3.04;100.00
20444;BME280;10381;53.730;10.010;2024-03-17T07:27:59;101357.19;;;3.23;100.00
20444;BME280;10381;53.730;10.010;2024-03-17T07:31:59;101360.13;;;3.34;100.00
20444;BME280;10381;53.730;10.010;2024-03-17T07:36:00;101360.22;;;3.32;100.00
20444;BME280;10381;53.730;10.010;2024-03-17T07:40:04;101368.38;;;3.44;100.00
20444;BME280;10381;53.730;10.010;2024-03-17T07:44:04;101385.19;;;3.57;100.00
20444;BME280;10381;53.730;10.010;2024-03-17T07:48:05;101402.16;;;3.84;100.00
20444;BME280;10381;53.730;10.010;2024-03-17T07:52:06;101449.50;;;3.99;100.00
20444;BME280;10381;53.730;10.010;2024-03-17T07:56:07;101504.09;;;4.08;100.00
20444;BME280;10381;53.730;10.010;2024-03-17T08:00:09;101577.69;;;4.22;100.00
20444;BME280;10381;53.730;10.010;2024-03-17T08:04:15;101651.50;;;4.51;100.00
20444;BME280;10381;53.730;10.010;2024-03-17T08:08:16;101779.72;;;4.40;100.00
20444;BME280;10381;53.730;10.010;2024-03-17T08:12:16;101903.16;;;4.57;100.00
20444;BME280;10381;53.730;10.010;2024-03-17T08:16:17;102001.03;;;4.99;100.00
20444;BME280;10381;53.730;10.010;2024-03-17T08:20:17;102045.22;;;5.47;100.00
20444;BME280;10381;53.730;10.010;2024-03-17T08:24:18;102104.88;;;5.64;100.00
20444;BME280;10381;53.730;10.010;2024-03-17T08:28:19;102155.16;;;5.96;100.00
20444;BME280;10381;53.730;10.010;2024-03-17T08:32:20;102191.19;;;6.32;100.00
20444;BME280;10381;53.730;10.010;2024-03-17T08:36:20;102197.19;;;6.53;100.00
20444;BME280;10381;53.730;10.010;2024-03-17T08:40:21;102233.63;;;6.62;100.00
20444;BME280;10381;53.730;10.010;2024-03-17T08:44:22;102230.53;;;6.16;100.00
20444;BME280;10381;53.730;10.010;2024-03-17T08:48:22;102212.44;;;6.27;100.00
20444;BME280;10381;53.730;10.010;2024-03-17T08:52:23;102210.59;;;6.29;100.00
20444;BME280;10381;53.730;10.010;2024-03-17T08:56:23;102209.59;;;6.32;100.00
20444;BME280;10381;53.730;10.010;2024-03-17T09:00:23;102221.34;;;6.25;100.00
20444;BME280;10381;53.730;10.010;2024-03-17T09:04:24;102213.84;;;6.34;100.00
20444;BME280;10381;53.730;10.010;2024-03-17T09:08:24;102214.84;;;6.51;100.00
20444;BME280;10381;53.730;10.010;2024-03-17T09:12:26;102234.25;;;6.67;100.00
20444;BME280;10381;53.730;10.010;2024-03-17T09:16:27;102239.50;;;6.67;100.00
20444;BME280;10381;53.730;10.010;2024-03-17T09:20:30;102256.66;;;6.93;100.00
20444;BME280;10381;53.730;10.010;2024-03-17T09:24:31;102264.41;;;7.14;100.00
20444;BME280;10381;53.730;10.010;2024-03-17T09:28:32;102264.81;;;7.41;100.00
20444;BME280;10381;53.730;10.010;2024-03-17T09:32:33;102286.38;;;7.32;100.00
20444;BME280;10381;53.730;10.010;2024-03-17T09:36:33;102285.56;;;6.95;100.00
20444;BME280;10381;53.730;10.010;2024-03-17T09:40:33;102299.84;;;7.25;100.00
20444;BME280;10381;53.730;10.010;2024-03-17T09:44:35;102301.84;;;7.73;100.00
20444;BME280;10381;53.730;10.010;2024-03-17T09:48:37;102295.75;;;7.88;100.00
20444;BME280;10381;53.730;10.010;2024-03-17T09:52:38;102301.63;;;7.60;100.00
20444;BME280;10381;53.730;10.010;2024-03-17T09:56:39;102318.00;;;7.66;100.00
20444;BME280;10381;53.730;10.010;2024-03-17T10:00:40;102318.78;;;7.51;100.00
20444;BME280;10381;53.730;10.010;2024-03-17T10:04:40;102323.34;;;8.16;100.00
20444;BME280;10381;53.730;10.010;2024-03-17T10:12:51;102313.97;;;8.59;100.00
20444;BME280;10381;53.730;10.010;2024-03-17T10:16:52;102274.56;;;8.70;100.00
20444;BME280;10381;53.730;10.010;2024-03-17T10:20:52;102275.44;;;8.71;100.00
20444;BME280;10381;53.730;10.010;2024-03-17T10:24:59;102256.91;;;8.39;100.00
20444;BME280;10381;53.730;10.010;2024-03-17T10:28:59;102247.03;;;8.74;100.00
20444;BME280;10381;53.730;10.010;2024-03-17T10:33:00;102240.06;;;8.58;100.00
20444;BME280;10381;53.730;10.010;2024-03-17T10:41:11;102236.72;;;8.38;100.00
20444;BME280;10381;53.730;10.010;2024-03-17T10:45:13;102240.91;;;8.74;100.00
20444;BME280;10381;53.730;10.010;2024-03-17T10:49:14;102222.53;;;9.17;100.00
20444;BME280;10381;53.730;10.010;2024-03-17T10:53:19;102218.00;;;8.89;100.00
20444;BME280;10381;53.730;10.010;2024-03-17T10:57:37;102213.66;;;8.26;100.00
20444;BME280;10381;53.730;10.010;2024-03-17T11:01:45;102207.25;;;7.98;100.00
20444;BME280;10381;53.730;10.010;2024-03-17T11:05:48;102214.03;;;8.66;100.00
20444;BME280;10381;53.730;10.010;2024-03-17T11:09:51;102205.94;;;9.29;100.00
20444;BME280;10381;53.730;10.010;2024-03-17T11:14:18;102203.88;;;9.49;100.00
20444;BME280;10381;53.730;10.010;2024-03-17T11:18:29;102203.78;;;9.36;100.00
20444;BME280;10381;53.730;10.010;2024-03-17T11:22:49;102198.25;;;9.10;100.00
20444;BME280;10381;53.730;10.010;2024-03-17T11:26:49;102203.72;;;9.07;100.00
20444;BME280;10381;53.730;10.010;2024-03-17T11:30:50;102201.69;;;8.96;100.00
20444;BME280;10381;53.730;10.010;2024-03-17T11:35:13;102212.69;;;8.74;100.00
20444;BME280;10381;53.730;10.010;2024-03-17T11:39:14;102202.50;;;8.52;100.00
20444;BME280;10381;53.730;10.010;2024-03-17T11:43:21;102199.53;;;8.59;100.00
20444;BME280;10381;53.730;10.010;2024-03-17T11:47:22;102195.09;;;8.27;100.00
20444;BME280;10381;53.730;10.010;2024-03-17T11:51:23;102191.22;;;8.65;100.00
20444;BME280;10381;53.730;10.010;2024-03-17T11:55:23;102190.72;;;8.58;100.00
20444;BME280;10381;53.730;10.010;2024-03-17T11:59:24;102184.50;;;8.59;100.00
20444;BME280;10381;53.730;10.010;2024-03-17T12:03:24;102181.94;;;8.58;100.00
20444;BME280;10381;53.730;10.010;2024-03-17T12:07:24;102201.63;;;8.04;100.00
20444;BME280;10381;53.730;10.010;2024-03-17T12:11:26;102191.91;;;8.37;100.00
20444;BME280;10381;53.730;10.010;2024-03-17T12:15:26;102172.97;;;8.76;100.00
20444;BME280;10381;53.730;10.010;2024-03-17T12:19:27;102176.41;;;8.62;100.00
20444;BME280;10381;53.730;10.010;2024-03-17T12:23:27;102173.47;;;7.89;100.00
20444;BME280;10381;53.730;10.010;2024-03-17T12:27:28;102185.31;;;8.14;100.00
20444;BME280;10381;53.730;10.010;2024-03-17T12:31:28;102178.03;;;8.33;100.00
20444;BME280;10381;53.730;10.010;2024-03-17T12:35:29;102176.50;;;8.29;100.00
20444;BME280;10381;53.730;10.010;2024-03-17T12:39:33;102185.13;;;7.85;100.00
20444;BME280;10381;53.730;10.010;2024-03-17T12:43:33;102181.53;;;7.86;100.00
20444;BME280;10381;53.730;10.010;2024-03-17T12:47:34;102179.00;;;8.16;100.00
20444;BME280;10381;53.730;10.010;2024-03-17T12:51:35;102165.84;;;8.46;100.00
20444;BME280;10381;53.730;10.010;2024-03-17T12:55:40;102156.91;;;8.49;100.00
20444;BME280;10381;53.730;10.010;2024-03-17T12:59:59;102145.25;;;8.37;100.00
20444;BME280;10381;53.730;10.010;2024-03-17T13:04:18;102139.44;;;8.46;100.00
20444;BME280;10381;53.730;10.010;2024-03-17T13:08:18;102127.53;;;9.00;100.00
20444;BME280;10381;53.730;10.010;2024-03-17T13:12:18;102130.94;;;8.41;100.00
20444;BME280;10381;53.730;10.010;2024-03-17T13:16:19;102123.25;;;8.52;100.00
20444;BME280;10381;53.730;10.010;2024-03-17T13:20:19;102118.75;;;8.55;100.00
20444;BME280;10381;53.730;10.010;2024-03-17T13:24:19;102113.72;;;8.50;100.00
20444;BME280;10381;53.730;10.010;2024-03-17T13:28:20;102115.69;;;8.30;100.00
20444;BME280;10381;53.730;10.010;2024-03-17T13:32:20;102112.38;;;8.27;100.00
20444;BME280;10381;53.730;10.010;2024-03-17T13:36:21;102094.66;;;8.29;100.00
20444;BME280;10381;53.730;10.010;2024-03-17T13:40:22;102107.38;;;8.68;100.00
20444;BME280;10381;53.730;10.010;2024-03-17T13:44:22;102106.50;;;8.68;100.00
20444;BME280;10381;53.730;10.010;2024-03-17T13:48:23;102107.22;;;8.56;100.00
20444;BME280;10381;53.730;10.010;2024-03-17T13:52:23;102104.28;;;8.30;100.00
20444;BME280;10381;53.730;10.010;2024-03-17T13:56:23;102107.19;;;8.41;100.00
20444;BME280;10381;53.730;10.010;2024-03-17T14:00:25;102097.94;;;8.48;100.00
20444;BME280;10381;53.730;10.010;2024-03-17T14:04:25;102094.34;;;8.80;100.00
20444;BME280;10381;53.730;10.010;2024-03-17T14:08:26;102091.69;;;8.80;100.00
20444;BME280;10381;53.730;10.010;2024-03-17T14:12:26;102091.97;;;8.75;100.00
20444;BME280;10381;53.730;10.010;2024-03-17T14:16:29;102087.75;;;8.87;100.00
20444;BME280;10381;53.730;10.010;2024-03-17T14:20:31;102086.50;;;8.64;100.00
20444;BME280;10381;53.730;10.010;2024-03-17T14:24:32;102077.59;;;8.50;100.00
20444;BME280;10381;53.730;10.010;2024-03-17T14:28:32;102067.44;;;8.59;100.00
20444;BME280;10381;53.730;10.010;2024-03-17T14:32:32;102069.94;;;8.46;100.00
20444;BME280;10381;53.730;10.010;2024-03-17T14:36:33;102055.66;;;8.79;100.00
20444;BME280;10381;53.730;10.010;2024-03-17T14:40:33;102062.00;;;9.05;100.00
20444;BME280;10381;53.730;10.010;2024-03-17T14:44:34;102061.31;;;8.87;100.00
20444;BME280;10381;53.730;10.010;2024-03-17T14:48:35;102045.00;;;8.94;100.00
20444;BME280;10381;53.730;10.010;2024-03-17T14:52:36;102040.56;;;8.81;100.00
20444;BME280;10381;53.730;10.010;2024-03-17T14:56:36;102056.53;;;8.93;100.00
20444;BME280;10381;53.730;10.010;2024-03-17T15:00:37;102043.66;;;9.02;100.00
20444;BME280;10381;53.730;10.010;2024-03-17T15:04:38;102042.94;;;9.00;100.00
20444;BME280;10381;53.730;10.010;2024-03-17T15:08:38;102047.56;;;9.10;100.00
20444;BME280;10381;53.730;10.010;2024-03-17T15:12:38;102050.81;;;9.28;100.00
20444;BME280;10381;53.730;10.010;2024-03-17T15:16:42;102046.16;;;8.90;100.00
20444;BME280;10381;53.730;10.010;2024-03-17T15:20:42;102046.88;;;8.64;100.00
20444;BME280;10381;53.730;10.010;2024-03-17T15:24:42;102044.53;;;8.88;100.00
20444;BME280;10381;53.730;10.010;2024-03-17T15:28:43;102035.72;;;8.44;100.00
20444;BME280;10381;53.730;10.010;2024-03-17T15:32:47;102037.72;;;8.39;100.00
20444;BME280;10381;53.730;10.010;2024-03-17T15:36:47;102036.66;;;8.58;100.00
20444;BME280;10381;53.730;10.010;2024-03-17T15:40:49;102037.72;;;8.69;100.00
20444;BME280;10381;53.730;10.010;2024-03-17T15:44:50;102035.34;;;8.65;100.00
20444;BME280;10381;53.730;10.010;2024-03-17T15:48:51;102033.75;;;8.62;100.00
20444;BME280;10381;53.730;10.010;2024-03-17T15:52:51;102037.63;;;8.71;100.00
20444;BME280;10381;53.730;10.010;2024-03-17T15:56:51;102040.03;;;8.45;100.00
20444;BME280;10381;53.730;10.010;2024-03-17T16:00:52;102035.81;;;8.57;100.00
20444;BME280;10381;53.730;10.010;2024-03-17T16:04:53;102028.53;;;8.46;100.00
20444;BME280;10381;53.730;10.010;2024-03-17T16:08:53;102027.47;;;8.35;100.00
20444;BME280;10381;53.730;10.010;2024-03-17T16:12:55;102028.34;;;8.19;100.00
20444;BME280;10381;53.730;10.010;2024-03-17T16:16:56;102031.13;;;8.02;100.00
20444;BME280;10381;53.730;10.010;2024-03-17T16:21:00;102024.50;;;7.79;100.00
20444;BME280;10381;53.730;10.010;2024-03-17T16:25:04;102021.97;;;7.61;100.00
20444;BME280;10381;53.730;10.010;2024-03-17T16:29:05;102031.41;;;7.50;100.00
20444;BME280;10381;53.730;10.010;2024-03-17T16:33:05;102029.53;;;7.36;100.00
20444;BME280;10381;53.730;10.010;2024-03-17T16:37:06;102031.56;;;7.31;100.00
20444;BME280;10381;53.730;10.010;2024-03-17T16:41:06;102029.00;;;7.13;100.00
20444;BME280;10381;53.730;10.010;2024-03-17T16:45:09;102028.59;;;7.05;100.00
20444;BME280;10381;53.730;10.010;2024-03-17T16:49:10;102035.34;;;6.93;100.00
20444;BME280;10381;53.730;10.010;2024-03-17T16:53:10;102036.06;;;6.79;100.00
20444;BME280;10381;53.730;10.010;2024-03-17T16:57:11;102039.19;;;6.70;100.00
20444;BME280;10381;53.730;10.010;2024-03-17T17:01:14;102036.66;;;6.51;100.00
20444;BME280;10381;53.730;10.010;2024-03-17T17:05:15;102037.09;;;6.42;100.00
20444;BME280;10381;53.730;10.010;2024-03-17T17:09:15;102052.91;;;6.25;100.00
20444;BME280;10381;53.730;10.010;2024-03-17T17:13:15;102067.28;;;6.00;100.00
20444;BME280;10381;53.730;10.010;2024-03-17T17:17:16;102065.44;;;5.83;100.00
20444;BME280;10381;53.730;10.010;2024-03-17T17:21:20;102067.88;;;5.69;100.00
20444;BME280;10381;53.730;10.010;2024-03-17T17:25:21;102065.59;;;5.61;100.00
20444;BME280;10381;53.730;10.010;2024-03-17T17:29:23;102076.69;;;5.49;100.00
20444;BME280;10381;53.730;10.010;2024-03-17T17:33:23;102076.13;;;5.42;100.00
20444;BME280;10381;53.730;10.010;2024-03-17T17:37:23;102074.63;;;5.37;100.00
20444;BME280;10381;53.730;10.010;2024-03-17T17:41:23;102086.84;;;5.38;100.00
20444;BME280;10381;53.730;10.010;2024-03-17T17:45:25;102081.63;;;5.36;100.00
20444;BME280;10381;53.730;10.010;2024-03-17T17:49:26;102086.19;;;5.32;100.00
20444;BME280;10381;53.730;10.010;2024-03-17T17:53:26;102086.19;;;5.32;100.00
20444;BME280;10381;53.730;10.010;2024-03-17T17:57:27;102092.59;;;5.27;100.00
20444;BME280;10381;53.730;10.010;2024-03-17T18:01:27;102087.75;;;5.18;100.00
20444;BME280;10381;53.730;10.010;2024-03-17T18:05:28;102088.34;;;5.04;100.00
20444;BME280;10381;53.730;10.010;2024-03-17T18:09:28;102085.13;;;4.97;100.00
20444;BME280;10381;53.730;10.010;2024-03-17T18:13:29;102090.53;;;4.94;100.00
20444;BME280;10381;53.730;10.010;2024-03-17T18:17:31;102095.19;;;4.87;100.00
20444;BME280;10381;53.730;10.010;2024-03-17T18:21:31;102085.81;;;4.82;100.00
20444;BME280;10381;53.730;10.010;2024-03-17T18:25:32;102093.31;;;4.70;100.00
20444;BME280;10381;53.730;10.010;2024-03-17T18:29:32;102101.56;;;4.61;100.00
20444;BME280;10381;53.730;10.010;2024-03-17T18:33:36;102112.16;;;4.60;100.00
20444;BME280;10381;53.730;10.010;2024-03-17T18:37:37;102118.75;;;4.48;100.00
20444;BME280;10381;53.730;10.010;2024-03-17T18:41:38;102115.66;;;4.38;100.00
20444;BME280;10381;53.730;10.010;2024-03-17T18:45:38;102131.72;;;4.31;100.00
20444;BME280;10381;53.730;10.010;2024-03-17T18:49:39;102125.53;;;4.32;100.00
20444;BME280;10381;53.730;10.010;2024-03-17T18:53:39;102120.53;;;4.25;100.00
20444;BME280;10381;53.730;10.010;2024-03-17T18:57:41;102127.06;;;4.15;100.00
20444;BME280;10381;53.730;10.010;2024-03-17T19:01:43;102114.28;;;4.08;100.00
20444;BME280;10381;53.730;10.010;2024-03-17T19:05:44;102106.22;;;3.90;100.00
20444;BME280;10381;53.730;10.010;2024-03-17T19:09:45;102102.94;;;3.85;100.00
20444;BME280;10381;53.730;10.010;2024-03-17T19:13:46;102086.72;;;3.75;100.00
20444;BME280;10381;53.730;10.010;2024-03-17T19:17:46;102082.34;;;3.74;100.00
20444;BME280;10381;53.730;10.010;2024-03-17T19:21:47;102082.53;;;3.70;100.00
20444;BME280;10381;53.730;10.010;2024-03-17T19:26:05;102071.06;;;3.72;100.00
20444;BME280;10381;53.730;10.010;2024-03-17T19:30:09;102070.84;;;3.78;100.00
20444;BME280;10381;53.730;10.010;2024-03-17T19:34:09;102070.97;;;3.75;100.00
20444;BME280;10381;53.730;10.010;2024-03-17T19:38:10;102074.31;;;3.79;100.00
20444;BME280;10381;53.730;10.010;2024-03-17T19:42:11;102077.91;;;3.76;100.00
20444;BME280;10381;53.730;10.010;2024-03-17T19:46:13;102065.66;;;3.77;100.00
20444;BME280;10381;53.730;10.010;2024-03-17T19:50:13;102068.53;;;3.71;100.00
20444;BME280;10381;53.730;10.010;2024-03-17T19:54:13;102072.81;;;3.73;100.00
20444;BME280;10381;53.730;10.010;2024-03-17T19:58:14;102054.75;;;3.66;100.00
20444;BME280;10381;53.730;10.010;2024-03-17T20:02:14;102057.38;;;3.66;100.00
20444;BME280;10381;53.730;10.010;2024-03-17T20:06:18;102056.75;;;3.59;100.00
20444;BME280;10381;53.730;10.010;2024-03-17T20:10:20;102060.41;;;3.55;100.00
20444;BME280;10381;53.730;10.010;2024-03-17T20:14:20;102051.81;;;3.51;100.00
20444;BME280;10381;53.730;10.010;2024-03-17T20:18:20;102060.53;;;3.52;100.00
20444;BME280;10381;53.730;10.010;2024-03-17T20:22:21;102069.25;;;3.52;100.00
20444;BME280;10381;53.730;10.010;2024-03-17T20:26:22;102072.03;;;3.48;100.00
20444;BME280;10381;53.730;10.010;2024-03-17T20:30:23;102095.44;;;3.52;100.00
20444;BME280;10381;53.730;10.010;2024-03-17T20:34:23;102086.16;;;3.44;100.00
20444;BME280;10381;53.730;10.010;2024-03-17T20:38:24;102084.47;;;3.42;100.00
20444;BME280;10381;53.730;10.010;2024-03-17T20:42:24;102081.28;;;3.34;100.00
20444;BME280;10381;53.730;10.010;2024-03-17T20:46:25;102083.09;;;3.32;100.00
20444;BME280;10381;53.730;10.010;2024-03-17T20:50:26;102081.63;;;3.25;100.00